Cadiz, KY

5:08 AM CST on January 16, 2017 (GMT -0600)
enchanted shores | | Change Station
Active Advisory: Dense Fog Advisory

Elev 404 ft 36.86 °N, 87.94 °W | Updated 55 seconds ago

Fog
Fog
45.2 °F
Feels Like 45 °F
N
2.0
Wind Variable Wind from West

Today
High -- | Low -- °F
--% Chance of Precip.
Yesterday
High -- | Low -- °F
Precip. -- in
Pressure 30.20 in
Visibility 0.8 miles
Clouds
Windchill 45 °F
Dew Point 43 °F
Humidity 95%
Rainfall 0.00 in
Snow Depth Not available.
7:02 AM 4:59 PM
Waning Gibbous, 82% visible
METAR KHOP 161058Z AUTO 10005KT 3/4SM R23/1800FT BR VV002 07/07 A3019 RMK AO2 SLP227 T00710071
Pressure 30.20 in
Visibility 0.8 miles
Clouds
Windchill 45 °F
Dew Point 43 °F
Humidity 95%
Rainfall 0.00 in
Snow Depth Not available.
7:02 AM 4:59 PM
Waning Gibbous, 82% visible
METAR KHOP 161058Z AUTO 10005KT 3/4SM R23/1800FT BR VV002 07/07 A3019 RMK AO2 SLP227 T00710071

Get Your Daily Forecast Email!

Thanks for signing up!

Be on the lookout for a verification email in your inbox.

You'll start receiving the daily forecast at 8 AM.

×

10-Day Weather Forecast

Almanac

Astronomy

Jan. 16, 2017 Rise Set
Actual Time
Civil Twilight
Nautical Twilight
Astronomical Twilight
Moon
Length of Visible Light
Length of Day
Tomorrow will be .
, % of the Moon is Illuminated

Today's Extremes

State Highs State Lows

Community

WunderPhotos

Upload Photos

1,962,540 photos uploaded!

WunderBlog® & News

Nearby

Air Quality

  Air Quality AQ Index Pollutant
Not available.

Snow Depth

Station Depth Elevation

Earthquake Activity

City Distance Mag. Time & Date
Minimum magnitude displayed is 2.5.

Coastal Water Temperatures

Place Temperature

Stations

Nearby Weather Stations

Station Location Temp. Windchill Dew Point Humidity Wind Precip. Elev Updated Type
                   

Watches & Warnings

Dense Fog Advisory
Issued: 10:42 PM CST Jan. 15, 2017 – National Weather Service

... Dense fog advisory in effect until 10 am CST Monday...

The National Weather Service in Paducah has issued a dense fog
advisory, which is in effect until 10 am CST Monday.

* Visibility... one quarter mile or less at times over much of the
region. Conditions may improve around sunrise near the Tennessee
border in west Kentucky... as a warm front reaches that area.
Elsewhere conditions may be slow to improve Monday
morning... especially over southern Illinois.

* Impacts... drivers tonight into Monday morning should be prepared
for rapidly reduced visibilities and allow some extra time to
reach destinations. Use low beam headlights in dense fog. High
beams tend to create more glare and reduce the visibility even
more.

Precautionary/preparedness actions...

A dense fog advisory means visibilities will frequently be
reduced to less than one quarter mile. If driving... slow down...
use your headlights... and leave plenty of distance ahead of you



Drs